Time;durP1;ratioP1;P1;durP2;ratioP2;P2;SDS_P1;SDS_P2;PMS_P1;PMS_P2;Temp;Humidity;BMP_temperature;BMP_pressure;BME280_temperature;BME280_humidity;BME280_pressure;Samples;Min_cycle;Max_cycle;Signal;HPM_P1;HPM_P2
2021/07/31 00:02:08;;;;;;;9.73;6.73;;;;;;;16.68;100.00;95449.38;5034160;28;20499;-78
2021/07/31 00:04:34;;;;;;;9.70;7.07;;;;;;;16.69;100.00;95453.66;5050261;28;20417;-78
2021/07/31 00:06:59;;;;;;;7.30;5.60;;;;;;;16.75;100.00;95457.50;5052843;28;20535;-78
2021/07/31 00:09:26;;;;;;;8.13;5.37;;;;;;;16.85;100.00;95460.13;5047895;28;20788;-78
2021/07/31 00:11:51;;;;;;;7.18;4.15;;;;;;;16.90;100.00;95453.47;5044876;28;20828;-78
2021/07/31 00:14:17;;;;;;;5.93;3.97;;;;;;;16.92;100.00;95454.16;5052227;28;20488;-78
2021/07/31 00:16:43;;;;;;;6.93;3.28;;;;;;;16.96;99.50;95452.09;5051920;28;20419;-78
2021/07/31 00:19:08;;;;;;;4.85;3.13;;;;;;;16.95;97.10;95447.84;5051899;28;20492;-78
2021/07/31 00:21:34;;;;;;;4.80;3.20;;;;;;;16.95;98.54;95450.44;5052377;28;20409;-78
2021/07/31 00:23:59;;;;;;;5.83;3.43;;;;;;;16.97;97.14;95456.34;5050691;28;20424;-78
2021/07/31 00:26:26;;;;;;;7.72;3.45;;;;;;;16.93;96.07;95461.03;5051027;28;20852;-78
2021/07/31 00:28:52;;;;;;;14.25;3.75;;;;;;;16.96;97.38;95461.72;5052096;28;20421;-78
2021/07/31 00:31:17;;;;;;;6.60;3.03;;;;;;;16.87;96.41;95463.41;5055936;28;20497;-78
2021/07/31 00:33:43;;;;;;;7.27;3.30;;;;;;;16.85;96.53;95467.97;5063459;28;20479;-79
2021/07/31 00:36:08;;;;;;;3.20;2.67;;;;;;;16.87;95.68;95468.63;5063082;28;20427;-79
2021/07/31 00:38:33;;;;;;;4.20;2.73;;;;;;;16.94;96.15;95472.31;5062725;28;20854;-78
2021/07/31 00:40:59;;;;;;;5.55;3.40;;;;;;;17.06;96.84;95463.34;5053700;28;20425;-78
2021/07/31 00:43:26;;;;;;;3.50;3.13;;;;;;;17.17;97.23;95470.19;5052738;28;20432;-78
2021/07/31 00:45:51;;;;;;;6.10;3.78;;;;;;;17.29;97.54;95460.38;5052564;28;20431;-79
2021/07/31 00:48:17;;;;;;;6.53;3.23;;;;;;;17.36;98.48;95462.25;5051439;28;20504;-79
2021/07/31 00:50:43;;;;;;;7.53;3.58;;;;;;;17.33;99.18;95466.97;5051245;28;20882;-78
2021/07/31 00:53:09;;;;;;;4.95;4.07;;;;;;;17.32;100.00;95465.31;5051159;28;20416;-78
2021/07/31 00:55:36;;;;;;;10.47;3.60;;;;;;;17.22;100.00;95467.16;5052326;28;20930;-78
2021/07/31 00:58:01;;;;;;;5.88;3.53;;;;;;;17.11;100.00;95476.81;5051290;28;20777;-78
2021/07/31 01:00:28;;;;;;;12.07;3.43;;;;;;;17.09;99.10;95476.16;5051034;28;20427;-78
2021/07/31 01:02:53;;;;;;;7.27;3.67;;;;;;;17.01;98.70;95478.63;5052290;28;20594;-79
2021/07/31 01:05:19;;;;;;;4.80;3.60;;;;;;;17.08;100.00;95468.44;5050507;28;20499;-78
2021/07/31 01:07:45;;;;;;;6.00;4.18;;;;;;;17.02;100.00;95467.22;5050784;28;20464;-78
2021/07/31 01:10:11;;;;;;;14.82;3.65;;;;;;;17.03;97.80;95468.06;5050427;28;20421;-79
2021/07/31 01:12:39;;;;;;;10.75;3.38;;;;;;;16.87;95.37;95477.31;5050578;28;20448;-78
2021/07/31 01:15:05;;;;;;;7.63;3.25;;;;;;;16.90;94.59;95465.72;5050425;28;20424;-78
2021/07/31 01:17:32;;;;;;;4.63;2.58;;;;;;;17.02;92.76;95462.00;5050558;28;20502;-78
2021/07/31 01:19:58;;;;;;;6.90;2.92;;;;;;;17.02;92.75;95472.47;5052207;28;20421;-79
2021/07/31 01:22:25;;;;;;;4.83;3.20;;;;;;;16.94;94.14;95467.09;5051741;28;20960;-78
2021/07/31 01:24:50;;;;;;;5.65;3.10;;;;;;;16.91;95.44;95467.41;5052320;28;20453;-78
2021/07/31 01:27:16;;;;;;;9.25;3.13;;;;;;;16.78;95.02;95474.72;5051890;28;20412;-78
2021/07/31 01:29:41;;;;;;;5.73;3.17;;;;;;;16.77;95.64;95471.28;5051905;28;20413;-78
2021/07/31 01:32:07;;;;;;;5.20;2.97;;;;;;;16.88;95.01;95465.88;5050496;28;20496;-78
2021/07/31 01:34:32;;;;;;;6.25;2.70;;;;;;;16.89;92.52;95467.53;5052174;28;20412;-78
2021/07/31 01:36:57;;;;;;;3.97;2.83;;;;;;;16.89;92.70;95458.84;5050516;28;20414;-78
2021/07/31 01:39:24;;;;;;;9.53;3.37;;;;;;;16.98;93.28;95460.59;5052217;28;20405;-78
2021/07/31 01:41:50;;;;;;;5.40;3.05;;;;;;;17.00;92.68;95471.75;5056231;28;20491;-78
2021/07/31 01:44:15;;;;;;;4.43;2.73;;;;;;;16.95;92.93;95473.19;5054742;28;20417;-78
2021/07/31 01:46:41;;;;;;;6.55;2.90;;;;;;;16.90;93.43;95469.16;5055894;28;20460;-78
2021/07/31 01:49:06;;;;;;;5.35;3.05;;;;;;;16.99;93.35;95469.31;5055086;28;20942;-78
2021/07/31 01:51:32;;;;;;;4.97;2.83;;;;;;;16.96;92.92;95469.59;5055380;28;20968;-78
2021/07/31 01:53:58;;;;;;;4.40;2.97;;;;;;;16.79;92.62;95474.56;5054826;28;20415;-78
2021/07/31 01:56:25;;;;;;;9.23;2.65;;;;;;;16.51;90.90;95475.44;5054695;28;20405;-78
2021/07/31 01:58:51;;;;;;;5.63;2.47;;;;;;;16.41;88.35;95472.81;5054848;28;20492;-78
2021/07/31 02:01:16;;;;;;;7.03;2.70;;;;;;;16.26;88.11;95471.59;5054711;28;20496;-78
2021/07/31 02:03:41;;;;;;;4.97;2.60;;;;;;;16.14;87.73;95468.31;5054649;28;20891;-78
2021/07/31 02:06:07;;;;;;;9.43;2.30;;;;;;;16.07;86.45;95468.03;5054353;28;20432;-78
2021/07/31 02:08:32;;;;;;;4.15;1.75;;;;;;;16.16;85.68;95469.81;5054557;28;20405;-78
2021/07/31 02:10:58;;;;;;;8.18;2.35;;;;;;;16.05;84.97;95464.72;5056947;28;20775;-78
2021/07/31 02:13:25;;;;;;;5.57;2.10;;;;;;;16.08;84.83;95463.63;5056520;28;20423;-78
2021/07/31 02:15:50;;;;;;;5.18;2.22;;;;;;;15.86;85.02;95468.13;5056430;28;20448;-78
2021/07/31 02:18:16;;;;;;;5.07;2.30;;;;;;;15.87;85.38;95458.50;5058121;28;20417;-78
2021/07/31 02:20:42;;;;;;;10.00;2.38;;;;;;;15.93;84.75;95461.41;5060013;28;20409;-78
2021/07/31 02:23:08;;;;;;;9.65;2.38;;;;;;;15.98;85.33;95461.00;5058326;28;20426;-79
2021/07/31 02:25:34;;;;;;;8.02;2.35;;;;;;;15.91;86.18;95455.53;5057582;28;20822;-78
2021/07/31 02:27:59;;;;;;;5.22;2.03;;;;;;;15.85;86.29;95457.84;5058123;28;20424;-79
2021/07/31 02:30:26;;;;;;;3.83;2.30;;;;;;;15.90;86.71;95456.47;5057151;28;20428;-78
2021/07/31 02:32:52;;;;;;;4.35;2.10;;;;;;;15.91;86.70;95452.09;5059362;28;20425;-79
2021/07/31 02:35:17;;;;;;;3.88;2.00;;;;;;;16.03;86.83;95450.16;5057392;28;20914;-78
2021/07/31 02:37:43;;;;;;;5.43;2.27;;;;;;;16.08;88.15;95450.56;5052988;28;20464;-76
2021/07/31 02:40:09;;;;;;;4.00;1.95;;;;;;;16.10;89.03;95452.09;5053651;28;20416;-76
2021/07/31 02:42:35;;;;;;;4.35;2.35;;;;;;;16.22;89.32;95452.75;5053509;28;20425;-77
2021/07/31 02:45:01;;;;;;;4.83;2.30;;;;;;;15.95;91.02;95458.69;5053540;28;20428;-76
2021/07/31 02:47:29;;;;;;;4.53;2.42;;;;;;;15.95;91.62;95448.25;5053311;28;20416;-77
2021/07/31 02:49:54;;;;;;;5.03;2.45;;;;;;;15.82;93.00;95447.66;5052270;28;20422;-77
2021/07/31 02:52:20;;;;;;;4.67;2.33;;;;;;;15.66;92.88;95441.19;5053634;28;20471;-77
2021/07/31 02:54:45;;;;;;;3.50;2.10;;;;;;;15.72;91.91;95448.50;5052313;28;20475;-76
2021/07/31 02:57:11;;;;;;;4.63;2.00;;;;;;;15.43;89.04;95442.38;5052017;28;20417;-75
2021/07/31 02:59:36;;;;;;;5.60;2.10;;;;;;;15.35;87.95;95442.19;5053190;28;20917;-76
2021/07/31 03:02:02;;;;;;;5.80;2.23;;;;;;;15.27;86.78;95449.84;5053331;28;20488;-77
2021/07/31 03:04:28;;;;;;;7.55;2.17;;;;;;;15.02;85.66;95449.38;5053440;28;20435;-76
2021/07/31 03:06:54;;;;;;;5.28;1.80;;;;;;;15.06;83.34;95437.72;5052945;28;20508;-77
2021/07/31 03:09:19;;;;;;;3.87;2.07;;;;;;;15.06;85.97;95448.16;5052988;28;20546;-76
2021/07/31 03:11:45;;;;;;;3.60;1.93;;;;;;;15.08;89.50;95450.63;5053246;28;20417;-76
2021/07/31 03:14:10;;;;;;;3.53;2.10;;;;;;;15.21;89.16;95448.63;5053063;28;20405;-77
2021/07/31 03:16:36;;;;;;;7.03;2.17;;;;;;;15.33;90.29;95444.94;5052888;28;20914;-75
2021/07/31 03:19:01;;;;;;;3.97;2.35;;;;;;;15.29;91.83;95446.16;5051536;28;20429;-75
2021/07/31 03:21:28;;;;;;;7.10;2.70;;;;;;;15.35;91.09;95456.09;5052916;28;20417;-76
2021/07/31 03:23:53;;;;;;;4.13;1.90;;;;;;;15.20;91.62;95446.94;5052938;28;20439;-76
2021/07/31 03:26:18;;;;;;;4.00;2.30;;;;;;;15.27;91.03;95458.50;5052742;28;20417;-75
2021/07/31 03:28:44;;;;;;;14.70;2.30;;;;;;;15.22;90.46;95455.47;5053048;28;20903;-76
2021/07/31 03:31:17;;;;;;;3.80;2.20;;;;;;;15.15;90.52;95455.16;5055157;28;20417;-76
2021/07/31 03:33:43;;;;;;;4.55;1.92;;;;;;;15.22;90.38;95451.09;5055080;28;20431;-76
2021/07/31 03:36:08;;;;;;;4.55;1.90;;;;;;;15.27;89.57;95453.28;5053890;28;20417;-76
2021/07/31 03:38:35;;;;;;;3.80;2.00;;;;;;;15.22;89.65;95451.09;5053313;28;20411;-76
2021/07/31 03:41:00;;;;;;;5.20;1.90;;;;;;;15.24;89.63;95453.56;5052516;28;20413;-76
2021/07/31 03:43:26;;;;;;;3.90;2.17;;;;;;;15.13;88.32;95456.25;5052847;28;20397;-76
2021/07/31 03:45:51;;;;;;;4.70;2.10;;;;;;;15.18;88.74;95454.91;5050923;28;20453;-76
2021/07/31 03:48:16;;;;;;;3.15;1.70;;;;;;;15.19;88.55;95451.34;5051239;28;20417;-75
2021/07/31 03:50:42;;;;;;;7.33;2.20;;;;;;;15.23;88.62;95452.72;5052359;28;20508;-76
2021/07/31 03:53:07;;;;;;;3.50;1.83;;;;;;;15.20;88.78;95446.94;5052293;28;20432;-76
2021/07/31 03:55:34;;;;;;;3.60;2.17;;;;;;;15.16;89.09;95453.38;5052084;28;20784;-76
2021/07/31 03:58:00;;;;;;;7.20;2.22;;;;;;;15.07;90.05;95447.19;5052269;28;20500;-76
2021/07/31 04:00:25;;;;;;;7.07;2.15;;;;;;;15.07;91.03;95441.16;5052062;28;20496;-77
2021/07/31 04:02:50;;;;;;;5.20;2.27;;;;;;;15.10;91.58;95446.09;5051642;28;20855;-76
2021/07/31 04:05:16;;;;;;;4.63;2.07;;;;;;;15.09;92.36;95444.44;5051769;28;20425;-76
2021/07/31 04:07:41;;;;;;;5.53;2.30;;;;;;;15.05;92.95;95448.25;5052142;28;20502;-76
2021/07/31 04:10:08;;;;;;;3.72;2.00;;;;;;;14.90;94.90;95451.22;5051992;28;20428;-76
2021/07/31 04:12:35;;;;;;;6.40;2.40;;;;;;;14.68;95.82;95454.84;5051929;28;20417;-77
2021/07/31 04:15:00;;;;;;;6.50;2.00;;;;;;;14.61;96.45;95456.31;5051884;28;20887;-76
2021/07/31 04:17:25;;;;;;;4.43;2.40;;;;;;;14.42;97.99;95456.13;5051682;28;20467;-77
2021/07/31 04:19:51;;;;;;;4.93;2.13;;;;;;;14.38;99.19;95462.56;5051761;28;20414;-76
2021/07/31 04:22:16;;;;;;;6.60;1.80;;;;;;;14.55;97.83;95466.41;5051759;28;20428;-76
2021/07/31 04:24:42;;;;;;;3.90;2.08;;;;;;;14.55;97.14;95469.84;5050388;28;20425;-77
2021/07/31 04:27:07;;;;;;;4.10;1.88;;;;;;;14.26;97.42;95473.03;5051513;28;20413;-76
2021/07/31 04:29:34;;;;;;;4.07;2.33;;;;;;;14.14;97.58;95468.84;5050269;28;20513;-76
2021/07/31 04:32:00;;;;;;;6.82;2.20;;;;;;;14.14;96.88;95471.44;5051828;28;21215;-76
2021/07/31 04:34:27;;;;;;;6.93;2.13;;;;;;;14.27;96.70;95473.88;5051580;28;20504;-76
2021/07/31 04:36:52;;;;;;;4.85;2.20;;;;;;;14.47;96.26;95475.66;5050223;28;20497;-76
2021/07/31 04:39:18;;;;;;;4.90;2.00;;;;;;;14.64;95.85;95476.06;5051464;28;20863;-76
2021/07/31 04:41:43;;;;;;;4.17;2.33;;;;;;;14.72;95.12;95482.31;5051439;28;20413;-76
2021/07/31 04:44:09;;;;;;;4.03;1.87;;;;;;;14.64;96.18;95483.88;5051268;28;20421;-76
2021/07/31 04:46:35;;;;;;;4.25;2.00;;;;;;;14.71;96.54;95482.41;5051218;28;20911;-75
2021/07/31 04:49:01;;;;;;;3.63;2.03;;;;;;;14.91;95.63;95484.19;5051185;28;20413;-76
2021/07/31 04:51:26;;;;;;;5.07;2.40;;;;;;;15.05;95.09;95479.56;5051289;28;20414;-75
2021/07/31 04:53:51;;;;;;;5.10;2.17;;;;;;;15.15;94.38;95478.66;5051142;28;20447;-76
2021/07/31 04:56:18;;;;;;;5.77;1.90;;;;;;;15.23;93.40;95481.41;5050982;28;20444;-76
2021/07/31 04:58:43;;;;;;;3.50;1.80;;;;;;;15.30;92.08;95473.06;5051117;28;20508;-76
2021/07/31 05:01:09;;;;;;;4.30;1.80;;;;;;;15.42;90.62;95477.22;5051135;28;20409;-76
2021/07/31 05:03:35;;;;;;;3.67;2.00;;;;;;;15.51;88.80;95478.22;5049795;28;20435;-76
2021/07/31 05:06:05;;;;;;;3.10;1.90;;;;;;;15.51;88.73;95465.19;5050693;28;20432;-76
2021/07/31 05:08:30;;;;;;;3.15;1.63;;;;;;;15.55;88.51;95472.59;5042782;28;20530;-76
2021/07/31 05:10:55;;;;;;;6.33;1.70;;;;;;;15.63;88.04;95474.53;5043439;28;21029;-76
2021/07/31 05:13:21;;;;;;;3.50;1.80;;;;;;;15.62;86.12;95475.50;5044459;28;20420;-75
2021/07/31 05:15:48;;;;;;;7.38;1.90;;;;;;;15.61;84.63;95474.69;5049879;28;20494;-75
2021/07/31 05:18:13;;;;;;;2.60;1.80;;;;;;;15.71;84.32;95485.16;5050866;28;20417;-76
2021/07/31 05:20:42;;;;;;;5.53;2.30;;;;;;;15.73;83.63;95485.88;5050792;28;20432;-76
2021/07/31 05:23:07;;;;;;;3.38;1.60;;;;;;;15.72;84.73;95490.28;5050795;28;21089;-76
2021/07/31 05:25:33;;;;;;;4.00;1.73;;;;;;;15.83;83.80;95488.47;5050471;28;20460;-76
2021/07/31 05:27:59;;;;;;;3.80;1.67;;;;;;;15.64;84.42;95489.22;5050683;28;20424;-76
2021/07/31 05:30:24;;;;;;;3.90;1.93;;;;;;;15.63;85.37;95487.59;5050610;28;20429;-76
2021/07/31 05:32:50;;;;;;;4.07;2.00;;;;;;;15.85;84.82;95497.00;5050567;28;20425;-76
2021/07/31 05:35:15;;;;;;;6.13;1.92;;;;;;;15.82;85.73;95489.44;5049353;28;20433;-75
2021/07/31 05:37:42;;;;;;;4.50;1.90;;;;;;;15.89;85.89;95494.00;5050686;28;20412;-76
2021/07/31 05:40:09;;;;;;;5.68;2.03;;;;;;;15.81;86.08;95499.06;5050552;28;20787;-76
2021/07/31 05:42:34;;;;;;;7.53;2.20;;;;;;;15.68;86.61;95499.34;5050377;28;20457;-76
2021/07/31 05:45:01;;;;;;;3.72;2.33;;;;;;;15.63;87.43;95501.47;5050454;28;20463;-76
2021/07/31 05:47:28;;;;;;;4.20;1.98;;;;;;;15.81;86.52;95499.06;5049362;28;20836;-75
2021/07/31 05:49:54;;;;;;;6.28;2.10;;;;;;;15.94;87.11;95496.19;5050787;28;20417;-76
2021/07/31 05:52:20;;;;;;;4.60;1.98;;;;;;;16.08;87.00;95493.19;5050546;28;20451;-76
2021/07/31 05:54:47;;;;;;;3.80;1.80;;;;;;;16.13;87.60;95488.38;5050416;28;20468;-75
2021/07/31 05:57:12;;;;;;;4.70;2.15;;;;;;;16.10;86.09;95493.88;5050145;28;20899;-76
2021/07/31 05:59:38;;;;;;;3.80;2.10;;;;;;;16.26;86.71;95493.31;5050406;28;20409;-75
2021/07/31 06:02:05;;;;;;;4.63;1.90;;;;;;;16.16;85.65;95493.31;5050503;28;20923;-76
2021/07/31 06:04:30;;;;;;;10.40;2.38;;;;;;;15.93;86.66;95482.31;5049025;28;20464;-76
2021/07/31 06:06:56;;;;;;;4.17;1.70;;;;;;;15.94;86.81;95486.59;5050159;28;20405;-76
2021/07/31 06:09:22;;;;;;;4.80;1.87;;;;;;;15.97;85.92;95488.09;5049919;28;20457;-76
2021/07/31 06:11:48;;;;;;;6.43;2.45;;;;;;;16.01;86.33;95486.84;5049045;28;20934;-76
2021/07/31 06:14:14;;;;;;;2.25;1.67;;;;;;;16.33;85.93;95493.59;5050318;28;20417;-76
2021/07/31 06:16:39;;;;;;;4.47;2.07;;;;;;;16.53;85.03;95490.00;5050156;28;20413;-76
2021/07/31 06:19:05;;;;;;;8.93;2.00;;;;;;;16.65;82.79;95494.13;5050105;28;20815;-76
2021/07/31 06:21:30;;;;;;;10.73;2.20;;;;;;;16.55;81.55;95490.69;5050211;28;20899;-76
2021/07/31 06:23:55;;;;;;;4.25;2.00;;;;;;;16.53;82.37;95497.84;5050462;28;20413;-76
2021/07/31 06:26:21;;;;;;;6.13;2.40;;;;;;;16.55;81.65;95493.31;5051999;28;20417;-77
2021/07/31 06:28:48;;;;;;;3.60;1.87;;;;;;;17.07;82.29;95493.78;5055966;28;21053;-76
2021/07/31 06:31:13;;;;;;;4.85;2.25;;;;;;;17.16;80.46;95486.84;5058884;28;20409;-76
2021/07/31 06:33:39;;;;;;;4.53;1.97;;;;;;;17.48;80.10;95493.47;5058677;28;20451;-77
2021/07/31 06:36:04;;;;;;;6.57;2.20;;;;;;;17.47;79.21;95492.66;5058262;28;20409;-77
2021/07/31 06:38:30;;;;;;;4.27;2.37;;;;;;;17.41;78.70;95490.59;5054872;28;20440;-77
2021/07/31 06:40:55;;;;;;;6.43;2.43;;;;;;;17.83;78.09;95490.13;5054209;28;20440;-76
2021/07/31 06:43:20;;;;;;;5.05;2.10;;;;;;;18.11;78.57;95490.91;5054085;28;20413;-78
2021/07/31 06:45:47;;;;;;;6.83;2.03;;;;;;;18.27;77.13;95492.84;5053558;28;20479;-77
2021/07/31 06:48:12;;;;;;;5.05;2.20;;;;;;;18.53;73.28;95490.28;5053673;28;20453;-76
2021/07/31 06:50:38;;;;;;;6.37;2.17;;;;;;;18.62;72.08;95494.63;5052419;28;20456;-78
2021/07/31 06:53:03;;;;;;;4.82;2.30;;;;;;;18.21;74.16;95493.47;5053499;28;20419;-76
2021/07/31 06:55:29;;;;;;;5.93;2.30;;;;;;;17.87;73.45;95484.47;5053478;28;20410;-76
2021/07/31 06:57:54;;;;;;;5.43;2.25;;;;;;;18.11;73.82;95493.53;5053617;28;20456;-72
2021/07/31 07:00:20;;;;;;;3.67;1.97;;;;;;;18.15;72.76;95484.41;5053478;28;20409;-73
2021/07/31 07:02:46;;;;;;;5.67;2.17;;;;;;;18.34;70.23;95489.47;5053389;28;20428;-72
2021/07/31 07:05:12;;;;;;;4.53;1.95;;;;;;;18.45;70.20;95490.22;5052641;28;20421;-72
2021/07/31 07:07:37;;;;;;;3.90;2.00;;;;;;;18.24;70.55;95487.91;5046363;28;20925;-72
2021/07/31 07:10:04;;;;;;;5.82;2.13;;;;;;;18.78;69.35;95488.72;5047046;28;20422;-73
2021/07/31 07:12:29;;;;;;;5.88;2.08;;;;;;;18.88;68.59;95484.19;5050582;28;20417;-72
2021/07/31 07:14:55;;;;;;;13.82;2.45;;;;;;;18.66;70.99;95484.66;5053111;28;20409;-72
2021/07/31 07:17:20;;;;;;;6.00;1.92;;;;;;;18.73;71.33;95488.34;5052735;28;20413;-72
2021/07/31 07:19:47;;;;;;;5.13;2.10;;;;;;;19.33;68.81;95483.13;5052808;28;20444;-72
2021/07/31 07:22:13;;;;;;;4.27;2.07;;;;;;;19.62;67.75;95485.41;5053118;28;20444;-72
2021/07/31 07:24:38;;;;;;;5.00;2.17;;;;;;;19.83;66.74;95479.72;5052771;28;20950;-74
2021/07/31 07:27:04;;;;;;;7.10;1.90;;;;;;;19.93;66.20;95480.41;5052546;28;20414;-72
2021/07/31 07:29:29;;;;;;;4.75;1.98;;;;;;;20.19;65.86;95487.34;5052762;28;20475;-72
2021/07/31 07:31:54;;;;;;;5.10;2.00;;;;;;;20.33;65.47;95481.47;5052741;28;20437;-72
2021/07/31 07:34:20;;;;;;;6.60;1.90;;;;;;;20.42;64.17;95485.72;5052635;28;21072;-77
2021/07/31 07:36:47;;;;;;;5.73;1.90;;;;;;;20.67;64.12;95485.75;5052518;28;20417;-77
2021/07/31 07:39:13;;;;;;;3.75;1.98;;;;;;;20.43;62.50;95483.91;5052279;28;20419;-76
2021/07/31 07:41:38;;;;;;;5.22;2.08;;;;;;;20.80;62.24;95483.44;5052675;28;20415;-77
2021/07/31 07:44:05;;;;;;;6.37;2.10;;;;;;;20.83;62.70;95482.28;5052707;28;20500;-77
2021/07/31 07:46:30;;;;;;;6.07;1.88;;;;;;;20.82;62.13;95478.84;5052244;28;20453;-77
2021/07/31 07:48:55;;;;;;;5.13;2.00;;;;;;;21.03;61.44;95483.59;5052331;28;20934;-77
2021/07/31 07:51:21;;;;;;;5.37;2.00;;;;;;;20.87;63.45;95486.22;5052426;28;20488;-77
2021/07/31 07:53:48;;;;;;;5.85;2.08;;;;;;;20.84;61.00;95492.66;5050979;28;20425;-77
2021/07/31 07:56:13;;;;;;;6.07;2.10;;;;;;;20.57;63.21;95485.91;5052016;28;20409;-77
2021/07/31 07:58:39;;;;;;;4.17;1.77;;;;;;;20.60;61.43;95487.41;5052486;28;20415;-76
2021/07/31 08:01:08;;;;;;;6.50;2.13;;;;;;;20.48;63.09;95487.72;5052348;28;20427;-77
2021/07/31 08:03:34;;;;;;;6.40;2.15;;;;;;;20.47;61.10;95480.81;5052648;28;20500;-76
2021/07/31 08:05:59;;;;;;;4.27;1.90;;;;;;;20.29;61.01;95474.88;5052424;28;20481;-77
2021/07/31 08:08:25;;;;;;;7.10;2.03;;;;;;;20.41;61.07;95478.81;5052835;28;20903;-77
2021/07/31 08:10:52;;;;;;;10.00;2.22;;;;;;;20.54;56.44;95481.84;5063789;23;20458;-77
2021/07/31 08:13:17;;;;;;;5.40;1.80;;;;;;;19.86;54.42;95481.22;5015227;28;20505;-77
2021/07/31 08:15:43;;;;;;;4.43;1.80;;;;;;;19.57;52.94;95477.13;5033502;28;20411;-78
2021/07/31 08:18:08;;;;;;;3.83;1.73;;;;;;;19.67;55.65;95467.34;5033004;28;20819;-77
2021/07/31 08:20:34;;;;;;;4.20;1.50;;;;;;;19.62;54.65;95474.06;5015062;28;20968;-78
2021/07/31 08:23:00;;;;;;;4.43;1.48;;;;;;;19.89;54.38;95473.00;5032712;28;20450;-76
2021/07/31 08:25:25;;;;;;;6.40;1.70;;;;;;;20.20;52.98;95470.59;5032597;28;20467;-78
2021/07/31 08:27:52;;;;;;;3.03;1.43;;;;;;;20.51;51.78;95470.81;5014498;28;20496;-78
2021/07/31 08:30:18;;;;;;;3.50;1.67;;;;;;;20.60;49.66;95472.44;5014842;28;20430;-78
2021/07/31 08:32:44;;;;;;;5.17;1.37;;;;;;;20.69;49.26;95467.97;5032483;28;20422;-78
2021/07/31 08:35:10;;;;;;;5.07;1.60;;;;;;;21.12;50.01;95465.94;5014307;28;20415;-78
2021/07/31 08:37:37;;;;;;;4.13;1.58;;;;;;;21.12;49.72;95471.22;5032703;28;20494;-78
2021/07/31 08:40:05;;;;;;;3.58;1.40;;;;;;;20.98;49.47;95478.81;5014701;28;20791;-78
2021/07/31 08:42:31;;;;;;;3.17;1.40;;;;;;;21.02;49.16;95479.28;5014523;28;20607;-76
2021/07/31 08:44:57;;;;;;;2.40;1.40;;;;;;;21.22;47.43;95480.56;5015067;28;21040;-78
2021/07/31 08:47:24;;;;;;;2.30;1.73;;;;;;;21.23;48.00;95478.75;5014652;28;20427;-77
2021/07/31 08:49:52;;;;;;;3.80;1.40;;;;;;;21.50;47.62;95483.63;5014294;28;20912;-77
2021/07/31 08:52:18;;;;;;;8.95;1.92;;;;;;;21.62;48.09;95483.28;5031352;28;20407;-76
2021/07/31 08:54:43;;;;;;;10.57;1.75;;;;;;;21.35;46.53;95473.97;5031276;28;20421;-76
2021/07/31 08:57:09;;;;;;;2.65;1.40;;;;;;;21.55;48.08;95477.88;5031276;28;20510;-76
2021/07/31 08:59:35;;;;;;;2.65;1.30;;;;;;;21.75;46.23;95467.72;5031167;28;20419;-77
2021/07/31 09:02:02;;;;;;;5.70;1.50;;;;;;;21.55;47.23;95474.41;5013362;28;20492;-77
2021/07/31 09:04:28;;;;;;;4.67;1.47;;;;;;;21.68;47.23;95467.56;5031138;28;20407;-78
2021/07/31 09:06:53;;;;;;;3.03;1.20;;;;;;;21.56;46.84;95470.78;5030698;28;20418;-76
2021/07/31 09:09:26;;;;;;;4.40;1.40;;;;;;;21.55;45.96;95462.06;5031117;28;20419;-76
2021/07/31 09:11:57;;;;;;;2.85;1.50;;;;;;;21.67;46.22;95462.50;5012941;28;20485;-79
2021/07/31 09:14:23;;;;;;;2.72;1.40;;;;;;;21.27;47.11;95464.25;5031066;28;20423;-76
2021/07/31 09:16:49;;;;;;;1.92;1.25;;;;;;;21.10;47.04;95466.13;5030444;28;20506;-75
2021/07/31 09:19:17;;;;;;;6.13;1.60;;;;;;;21.34;46.73;95467.06;5030919;28;20410;-76
2021/07/31 09:21:43;;;;;;;4.13;1.63;;;;;;;21.84;45.33;95471.97;5013192;28;20426;-76
2021/07/31 09:24:17;;;;;;;5.32;1.63;;;;;;;21.78;45.31;95466.56;5013086;28;20423;-76
2021/07/31 09:26:48;;;;;;;5.00;1.60;;;;;;;21.90;45.42;95458.06;5030367;28;20427;-76
2021/07/31 09:29:15;;;;;;;6.70;2.33;;;;;;;21.83;47.17;95465.03;5030648;28;20441;-76
2021/07/31 09:31:49;;;;;;;3.83;1.70;;;;;;;21.79;46.86;95458.47;5012904;28;20415;-75
2021/07/31 09:34:25;;;;;;;4.63;1.75;;;;;;;22.03;45.24;95468.06;5030745;28;20920;-76
2021/07/31 09:37:04;;;;;;;4.90;1.57;;;;;;;22.44;43.71;95455.44;5030617;28;20894;-76
2021/07/31 09:39:47;;;;;;;4.57;1.57;;;;;;;22.34;44.79;95454.84;5030912;28;20414;-76
2021/07/31 09:42:25;;;;;;;4.28;1.63;;;;;;;21.17;49.13;95456.56;5012741;28;20442;-76
2021/07/31 09:44:50;;;;;;;3.20;1.80;;;;;;;20.63;48.64;95463.41;5030452;28;20426;-76
2021/07/31 09:47:16;;;;;;;4.28;1.70;;;;;;;21.45;51.77;95464.06;5030336;28;20445;-76
2021/07/31 09:49:43;;;;;;;3.57;1.43;;;;;;;21.90;46.94;95460.69;5030443;28;20415;-75
2021/07/31 09:52:16;;;;;;;6.00;1.83;;;;;;;21.92;49.23;95455.28;5030441;28;20469;-74
2021/07/31 09:54:42;;;;;;;6.20;1.70;;;;;;;21.69;47.24;95455.22;5012912;28;20427;-74
2021/07/31 09:57:08;;;;;;;2.72;1.48;;;;;;;21.55;46.57;95464.69;5030571;28;20422;-74
2021/07/31 09:59:34;;;;;;;4.95;1.58;;;;;;;21.40;48.44;95456.69;5030517;28;20422;-73
2021/07/31 10:02:01;;;;;;;3.60;1.55;;;;;;;21.92;47.23;95450.81;5033434;28;20419;-75
2021/07/31 10:04:26;;;;;;;9.88;1.70;;;;;;;21.32;47.03;95448.78;5013146;28;20424;-76
2021/07/31 10:06:54;;;;;;;4.70;1.73;;;;;;;20.86;47.75;95445.94;5016089;28;20419;-75
2021/07/31 10:09:19;;;;;;;4.00;1.70;;;;;;;21.12;48.05;95440.44;5016478;28;20419;-75
2021/07/31 10:11:45;;;;;;;3.33;1.57;;;;;;;21.50;46.11;95446.72;5034174;28;20947;-75
2021/07/31 10:14:11;;;;;;;4.30;2.00;;;;;;;21.71;45.37;95442.69;5016633;28;20419;-79
2021/07/31 10:16:39;;;;;;;3.33;1.55;;;;;;;22.07;44.91;95445.63;5015981;28;20419;-75
2021/07/31 10:19:07;;;;;;;2.83;1.65;;;;;;;21.66;45.63;95440.59;5033445;28;20415;-75
2021/07/31 10:21:36;;;;;;;4.07;1.40;;;;;;;21.87;47.08;95441.78;5014776;28;20438;-74
2021/07/31 10:24:04;;;;;;;5.95;1.88;;;;;;;21.68;46.85;95443.03;5033880;28;20457;-75
2021/07/31 10:26:32;;;;;;;3.17;1.50;;;;;;;21.17;45.74;95439.91;5033540;28;20852;-75
2021/07/31 10:29:35;;;;;;;4.03;1.60;;;;;;;22.05;45.81;95439.69;5033960;28;20446;-75
2021/07/31 10:32:42;;;;;;;4.60;1.50;;;;;;;21.74;46.87;95442.34;5033789;28;20789;-74
2021/07/31 10:35:23;;;;;;;5.57;1.50;;;;;;;21.66;47.47;95440.59;5034298;28;20423;-75
2021/07/31 10:37:48;;;;;;;3.00;1.80;;;;;;;21.71;45.02;95438.25;5033633;28;20927;-75
2021/07/31 10:40:53;;;;;;;2.63;1.40;;;;;;;21.73;45.18;95446.00;5033706;28;20415;-75
2021/07/31 10:43:20;;;;;;;3.58;1.67;;;;;;;21.53;46.10;95440.31;5033987;28;20468;-75
2021/07/31 10:45:49;;;;;;;4.07;1.40;;;;;;;21.80;45.86;95452.19;5033329;28;20473;-75
2021/07/31 10:48:38;;;;;;;2.75;1.60;;;;;;;22.42;49.14;95451.31;5033612;28;20438;-75
2021/07/31 10:51:04;;;;;;;2.75;1.25;;;;;;;22.17;45.45;95440.13;5015696;28;20426;-76
2021/07/31 10:53:51;;;;;;;2.70;1.57;;;;;;;21.90;44.85;95451.97;5015752;28;20429;-75
2021/07/31 10:56:17;;;;;;;2.57;1.40;;;;;;;21.91;46.44;95449.16;5033038;28;20927;-75
2021/07/31 10:59:14;;;;;;;10.50;3.20;;;;;;;21.23;45.83;95449.78;5033399;28;20433;-77
2021/07/31 11:01:40;;;;;;;4.05;2.40;;;;;;;21.46;48.00;95450.69;5014624;28;20422;-76
2021/07/31 11:04:06;;;;;;;2.08;1.17;;;;;;;21.37;46.08;95451.75;5032733;28;20497;-77
2021/07/31 11:07:05;;;;;;;3.03;1.40;;;;;;;21.31;45.82;95449.75;5015071;28;20508;-77
2021/07/31 11:09:30;;;;;;;2.63;1.30;;;;;;;21.49;45.01;95447.72;5033333;28;20477;-76
2021/07/31 11:11:55;;;;;;;5.07;1.67;;;;;;;21.57;47.78;95460.06;5032303;28;20900;-77
2021/07/31 11:14:57;;;;;;;3.40;1.50;;;;;;;22.06;45.75;95448.41;5014948;28;20510;-77
2021/07/31 11:17:22;;;;;;;3.63;1.80;;;;;;;21.79;45.91;95441.81;5031750;28;20868;-77
2021/07/31 11:19:48;;;;;;;5.13;1.90;;;;;;;21.62;46.11;95438.47;5015222;28;21055;-77
2021/07/31 11:22:13;;;;;;;3.60;1.70;;;;;;;21.57;47.88;95441.59;5032937;28;20469;-77
2021/07/31 11:24:39;;;;;;;3.47;1.30;;;;;;;21.92;45.10;95442.91;5015228;28;20423;-77
2021/07/31 11:27:11;;;;;;;6.00;1.87;;;;;;;22.10;45.88;95441.78;5032750;28;20897;-77
2021/07/31 11:29:51;;;;;;;4.63;1.45;;;;;;;21.74;45.57;95445.00;5032988;28;20983;-77
2021/07/31 11:32:17;;;;;;;3.05;1.55;;;;;;;21.81;46.11;95440.66;5015194;28;20510;-78